Nearby METAR Reports

 

EBAW - Antwerp/Deurne, Belgium
Distance from station: ZZO 9km
Ververst: 03/08/2021 01:50
Helder
Helder
 Wind van NNO
Wind: NNO 6 km/h
Temperatuur: 15°C
Dauwpunt: 9°C
Vochtigheid: 68%
Barometer: 1015 hPa
Overzicht: Helder
Visibility: greater than 10 km
2021/08/02 23:50 EBAW 022350Z AUTO 02003KT 350V050 CAVOK 15/09 Q1015
EHWO - Woensdrecht Rnla, Netherlands
Distance from station: NNW 20km
Ververst: 03/08/2021 01:55
Zwaar bewolkt
Zwaar bewolkt
 Wind van NO
Wind: NO 2 km/h
Temperatuur: 12°C
Dauwpunt: 11°C
Vochtigheid: 94%
Barometer: 1014 hPa
Clouds: Zwaar bewolkt
Visibility: 10 km
Cloud details: Few Clouds 2865 m
Zwaar bewolkt 3353 m
2021/08/02 23:55 EHWO 022355Z AUTO 05001KT 9999 FEW094 OVC110 12/11 Q1014 BLU
 
EBBR - Brussels Nationa, Belgium
Distance from station: Z 43km
Ververst: 03/08/2021 01:50
Gedeeltelijk bewolkt
Gedeeltelijk bewolkt
 Wind van N
Wind: N 4 km/h
Temperatuur: 14°C
Dauwpunt: 11°C
Vochtigheid: 82%
Barometer: 1015 hPa
Clouds: Gedeeltelijk bewolkt
Visibility: 10 km
Cloud details: Gedeeltelijk bewolkt 1189 m
2021/08/02 23:50 EBBR 022350Z 36002KT 9999 SCT039 14/11 Q1015 TEMPO 4500 SHRA BKN014
EHGR - Gilze-Rijen Rnla, Netherlands
Distance from station: NO 47km
Ververst: 03/08/2021 01:55
Zwaar bewolkt
Zwaar bewolkt
 Wind van W
Wind: W 4 km/h
Temperatuur: 11°C
Dauwpunt: 10°C
Vochtigheid: 94%
Barometer: 1014 hPa
Clouds: Zwaar bewolkt
Visibility: 10 km
Cloud details: Zwaar bewolkt 3962 m
2021/08/02 23:55 EHGR 022355Z AUTO 28002KT 9999 OVC130 11/10 Q1014 BLU
 
EBDT - Schaffen, Belgium
Distance from station: OZO 54km
Ververst: 03/08/2021 01:55
Meestal bewolkt
Meestal bewolkt
 Wind van NNW
Wind: NNW 6 km/h
Temperatuur: 13°C
Dauwpunt: 11°C
Vochtigheid: 88%
Barometer: 1014 hPa
Clouds: Meestal bewolkt
Visibility: 10 km
Cloud details: Meestal bewolkt 3048 m
2021/08/02 23:55 EBDT 022355Z AUTO 34003KT 9999 BKN100/// 13/11 Q1014 BLU
EHFS - Vlissingen, Netherlands
Distance from station: WNW 60km
Ververst: 03/08/2021 01:55
Gedeeltelijk bewolkt
Gedeeltelijk bewolkt
 Wind van NNO
Wind: NNO 6 km/h
Temperatuur: 15°C
Dauwpunt: 10°C
Vochtigheid: 72%
Barometer: 1014 hPa
Clouds: Gedeeltelijk bewolkt
Visibility: 10 km
2021/08/02 23:55 EHFS 022355Z AUTO 03003KT 360V060 9999 NSC 15/10 Q1014
 
EBBE - Beauvechain (baf, Belgium
Distance from station: ZZO 64km
Ververst: 03/08/2021 01:55
Zwaar bewolkt
Zwaar bewolkt
 Wind van varies
Wind: varies 4 km/h
Temperatuur: 14°C
Dauwpunt: 12°C
Vochtigheid: 88%
Barometer: 1014 hPa
Clouds: Zwaar bewolkt
Visibility: 10 km
Cloud details: Few Clouds 1067 m
Zwaar bewolkt 2438 m
2021/08/02 23:55 EBBE 022355Z AUTO VRB02KT 9999 FEW035/// OVC080/// 14/12 Q1014 BLU
EHEH - Eindhoven Rnlafb, Netherlands
Distance from station: ONO 69km
Ververst: 03/08/2021 01:55
Zwaar bewolkt
Zwaar bewolkt
 Wind van WZW
Wind: WZW 2 km/h
Temperatuur: 11°C
Dauwpunt: 10°C
Vochtigheid: 94%
Barometer: 1014 hPa
Clouds: Zwaar bewolkt
Visibility: 10 km
Cloud details: Gedeeltelijk bewolkt 1189 m
Meestal bewolkt 3658 m
Zwaar bewolkt 7620 m
2021/08/02 23:55 EHEH 022355Z AUTO 24001KT 9999 SCT039 BKN120 OVC250 11/10 Q1014 BLU
 
EBBL - Kleine-Brogel(Ba, Belgium
Distance from station: O 74km
Ververst: 03/08/2021 01:55
Meestal bewolkt
Meestal bewolkt
 Wind van varies
Wind: varies 2 km/h
Temperatuur: 11°C
Dauwpunt: 11°C
Vochtigheid: 100%
Barometer: 1014 hPa
Clouds: Meestal bewolkt
Visibility: 6 km
Cloud details: Meestal bewolkt 3353 m
2021/08/02 23:55 EBBL 022355Z AUTO VRB01KT 6000 BKN110/// 11/11 Q1014 WHT
EHRD - Rotterdam Airpor, Netherlands
Distance from station: N 75km
Ververst: 03/08/2021 01:55
Gedeeltelijk bewolkt
Gedeeltelijk bewolkt
 Wind van NNW
Wind: NNW 4 km/h
Temperatuur: 12°C
Dauwpunt: 12°C
Vochtigheid: 100%
Barometer: 1014 hPa
Clouds: Gedeeltelijk bewolkt
Visibility: 10 km
2021/08/02 23:55 EHRD 022355Z AUTO 33002KT 9999 NSC 12/12 Q1014 NOSIG
 
EHSC - Goeree Le Sea, Netherlands
Distance from station: NW 89km
Ververst: 03/08/2021 01:55

 Wind van N
Wind: N 11 km/h
Temperatuur: 16°C
Dauwpunt: 9°C
Vochtigheid: 63%
Barometer: 1015 hPa
Visibility: 10 km
2021/08/02 23:55 EHSC 022355Z AUTO 35006KT 9999 ///////// 16/09 Q1015 W19/H11
EBCI - Charleroi/Gossel, Belgium
Distance from station: Z 90km
Ververst: 03/08/2021 01:50
Helder
Helder
 Wind van O
Wind: O 4 km/h
Temperatuur: 15°C
Dauwpunt: 13°C
Vochtigheid: 88%
Barometer: 1014 hPa
Overzicht: Helder
Visibility: greater than 10 km
2021/08/02 23:50 EBCI 022350Z 10002KT CAVOK 15/13 Q1014 TEMPO 4000 -RA
 
EBCV - Chievres Ab, Belgium
Distance from station: ZZW 90km
Ververst: 03/08/2021 01:55
Lichte regen, Zwaar bewolkt
Lichte regen, Zwaar bewolkt
 Wind van varies
Wind: varies 4 km/h
Temperatuur: 14°C
Dauwpunt: 12°C
Vochtigheid: 88%
Barometer: 1014 hPa
Overzicht: Lichte regen
Clouds: Zwaar bewolkt
Visibility: 10 km
Cloud details: Zwaar bewolkt 2012 m
2021/08/02 23:55 EBCV 022355Z AUTO VRB02KT 9999 -RA OVC066/// 14/12 Q1014 BLU
EHVK - Volkel Rnlafb, Netherlands
Distance from station: ONO 97km
Ververst: 03/08/2021 01:55
Zwaar bewolkt
Zwaar bewolkt
 Wind van calm
Wind: Kalm
Temperatuur: 10°C
Dauwpunt: 10°C
Vochtigheid: 100%
Barometer: 1014 hPa
Clouds: Zwaar bewolkt
Visibility: 10 km
Cloud details: Zwaar bewolkt 7925 m
2021/08/02 23:55 EHVK 022355Z AUTO 00000KT 9999 OVC260 10/10 Q1014 BLU
 
EBLG - Bierset/Liege (c, Belgium
Distance from station: ZO 102km
Ververst: 03/08/2021 01:50
Lichte regen, Gedeeltelijk bewolkt
Lichte regen, Gedeeltelijk bewolkt
 Wind van varies
Wind: varies 4 km/h
Temperatuur: 14°C
Dauwpunt: 13°C
Vochtigheid: 94%
Barometer: 1014 hPa
Overzicht: Lichte regen
Clouds: Gedeeltelijk bewolkt
Visibility: 10 km
2021/08/02 23:50 EBLG 022350Z VRB02KT 9999 -RA NSC 14/13 Q1014 NOSIG
EHBK - Zuid-Limburg/Bee, Netherlands
Distance from station: OZO 102km
Ververst: 03/08/2021 01:55
Few Clouds
Few Clouds
 Wind van ZO
Wind: ZO 4 km/h
Temperatuur: 13°C
Dauwpunt: 11°C
Vochtigheid: 88%
Barometer: 1014 hPa
Clouds: Few Clouds
Visibility: 10 km
Cloud details: Few Clouds 457 m
2021/08/02 23:55 EHBK 022355Z AUTO 13002KT 9999 FEW015CB 13/11 Q1014
 
EBOS - Oostende Airport, Belgium
Distance from station: W 108km
Ververst: 03/08/2021 01:50
Helder
Helder
 Wind van varies
Wind: varies 4 km/h
Temperatuur: 14°C
Dauwpunt: 11°C
Vochtigheid: 82%
Barometer: 1015 hPa
Overzicht: Helder
Visibility: greater than 10 km
2021/08/02 23:50 EBOS 022350Z VRB02KT CAVOK 14/11 Q1015 NOSIG
EHSA - Euro Platform, Netherlands
Distance from station: NW 112km
Ververst: 03/08/2021 01:55

 Wind van NNW
Wind: NNW 9 km/h
Temperatuur: 16°C
Dauwpunt: 9°C
Vochtigheid: 63%
Barometer: 1015 hPa
Visibility: 10 km
2021/08/02 23:55 EHSA 022355Z AUTO 33005KT 9999 ///////// 16/09 Q1015 W18/H13
 
EHAM - Amsterdam/Schiph, Netherlands
Distance from station: NNO 118km
Ververst: 03/08/2021 01:55
Few Clouds
Few Clouds
 Wind van NW
Wind: NW 2 km/h
Temperatuur: 11°C
Dauwpunt: 11°C
Vochtigheid: 100%
Barometer: 1014 hPa
Clouds: Few Clouds
Visibility: 10 km
Cloud details: Few Clouds 1250 m
2021/08/02 23:55 EHAM 022355Z 32001KT 9999 FEW041 11/11 Q1014 NOSIG
ETNG - Geilenkirchen(Na, Germany
Distance from station: OZO 118km
Ververst: 03/08/2021 01:50
Helder
Helder
 Wind van N
Wind: N 6 km/h
Temperatuur: 11°C
Dauwpunt: 10°C
Vochtigheid: 94%
Barometer: 1014 hPa
Overzicht: Helder
Visibility: greater than 10 km
2021/08/02 23:50 ETNG 022350Z 01003KT CAVOK 11/10 Q1014